»·PEaware :: GAJ250 KHWD-KSNA

GAJ250 :: KHWD-KSNA

FLIGHT INFORMATION

Flight Status: Arrived
Operator: Unknown
More flights by this operator :: More flights under this callsign
Pilot: Anonymous 13363 (13363)
Aircraft: BEECH AIRCRAFT SUPER KING AIR COMMUTER
(BE20)
More flights by this aircraft type
Origin: KHWD Hayward Executive
United States
Destination: KSNA John Wayne-Orange Co
United States
More flights between these airports :: More routes between these airports
Route: + AVE J1 FIM TANDY4
File this flight plan on PilotEdge
Remarks:
Altitude:
(Current/Filed)
27,000ft
Speed:
(Current/Filed)
275kts
Departed: 30-Jan-18 08:47 PM
Arrived: 30-Jan-18 10:11 PM
Distance/Time
Traveled:
317nm/1:24
Distance/Time
To Go:
Arrived

Flight Plot

Page will automatically refresh every two minutes.

Flight plan parsing failed; only flown route is shown


Map Options




Map Legend


Flown Route
Filed Route
Departure Airport
Arrival Airport
Navaid (VOR, NDB)
Fix

Horizontal Profiles

Position Reports

Time Latitude Longitude Heading Altitude Ground
Speed
30-Jan-18 20:42 37.661603 -122.121999 302 39ft 0kts
30-Jan-18 20:43 37.661603 -122.121999 302 39ft 0kts
30-Jan-18 20:44 37.661603 -122.121999 302 39ft 0kts
30-Jan-18 20:45 37.661603 -122.121999 302 39ft 0kts
30-Jan-18 20:46 37.661603 -122.121999 302 39ft 0kts
30-Jan-18 20:47 37.661603 -122.121999 302 39ft 0kts
30-Jan-18 20:48 37.661603 -122.121999 302 39ft 0kts
30-Jan-18 20:49 37.661603 -122.121999 302 39ft 0kts
30-Jan-18 20:50 37.660349 -122.120825 122 39ft 11kts
30-Jan-18 20:51 37.657997 -122.116425 149 39ft 17kts
30-Jan-18 20:52 37.655765 -122.114415 209 39ft 2kts
30-Jan-18 20:53 37.658175 -122.121302 299 39ft 101kts
30-Jan-18 20:54 37.681631 -122.157704 305 1806ft 156kts
30-Jan-18 20:55 37.656841 -122.182443 161 4175ft 145kts
30-Jan-18 20:56 37.620032 -122.160702 155 6390ft 150kts
30-Jan-18 20:57 37.581773 -122.138076 153 8335ft 164kts
30-Jan-18 20:58 37.538850 -122.112705 158 10135ft 173kts
30-Jan-18 20:59 37.494911 -122.086841 158 12065ft 180kts
30-Jan-18 21:00 37.449116 -122.059877 158 14122ft 186kts
30-Jan-18 21:01 37.401661 -122.031971 158 16067ft 193kts
30-Jan-18 21:02 37.352554 -122.003118 157 17837ft 200kts
30-Jan-18 21:03 37.301967 -121.973461 157 19628ft 206kts
30-Jan-18 21:04 37.249738 -121.942870 158 21255ft 211kts
30-Jan-18 21:05 37.196296 -121.911619 158 22695ft 216kts
30-Jan-18 21:06 37.141651 -121.879654 158 23991ft 220kts
30-Jan-18 21:07 37.090774 -121.849823 159 25613ft 201kts
30-Jan-18 21:08 37.039485 -121.820018 158 26725ft 206kts
30-Jan-18 21:09 36.989198 -121.790897 158 27146ft 237kts
30-Jan-18 21:10 36.924606 -121.753571 157 27111ft 270kts
30-Jan-18 21:11 36.860566 -121.716477 157 27104ft 282kts
30-Jan-18 21:12 36.789204 -121.675223 157 27103ft 287kts
30-Jan-18 21:13 36.716676 -121.633396 157 27103ft 289kts
30-Jan-18 21:14 36.645302 -121.586660 146 27105ft 295kts
30-Jan-18 21:15 36.578247 -121.527849 146 27104ft 296kts
30-Jan-18 21:16 36.510977 -121.468853 146 27104ft 297kts
30-Jan-18 21:17 36.443558 -121.409901 146 27105ft 297kts
30-Jan-18 21:18 36.375879 -121.350845 146 27106ft 298kts
30-Jan-18 21:19 36.308683 -121.292354 146 27101ft 297kts
30-Jan-18 21:20 36.240940 -121.233511 146 27102ft 297kts
30-Jan-18 21:21 36.187859 -121.158070 118 27104ft 298kts
30-Jan-18 21:22 36.147971 -121.068609 118 27103ft 298kts
30-Jan-18 21:23 36.107928 -120.979858 118 27070ft 281kts
30-Jan-18 21:24 36.068930 -120.894099 118 27106ft 291kts
30-Jan-18 21:25 36.028839 -120.805880 118 27106ft 296kts
30-Jan-18 21:26 35.988332 -120.717122 118 27106ft 299kts
30-Jan-18 21:27 35.947340 -120.627552 118 27106ft 299kts
30-Jan-18 21:28 35.906321 -120.538148 118 27107ft 300kts
30-Jan-18 21:29 35.870699 -120.460711 118 27103ft 300kts
30-Jan-18 21:30 35.829699 -120.371795 118 27135ft 298kts
30-Jan-18 21:31 35.797899 -120.302986 119 27153ft 298kts
30-Jan-18 21:32 35.759832 -120.220790 119 27102ft 300kts
30-Jan-18 21:33 35.719032 -120.132940 119 27151ft 298kts
30-Jan-18 21:34 35.667918 -120.055890 144 27157ft 297kts
30-Jan-18 21:35 35.601356 -119.995561 145 27156ft 298kts
30-Jan-18 21:36 35.535055 -119.935354 145 27129ft 299kts
30-Jan-18 21:37 35.468579 -119.874861 144 27130ft 297kts
30-Jan-18 21:38 35.402413 -119.814747 144 27130ft 295kts
30-Jan-18 21:39 35.336822 -119.755287 144 27130ft 295kts
30-Jan-18 21:40 35.271054 -119.695789 144 27131ft 294kts
30-Jan-18 21:41 35.212036 -119.642504 144 27132ft 294kts
30-Jan-18 21:42 35.146347 -119.583310 144 27131ft 294kts
30-Jan-18 21:43 35.082936 -119.526282 144 27133ft 294kts
30-Jan-18 21:44 35.018181 -119.468171 144 27133ft 294kts
30-Jan-18 21:45 34.952494 -119.409336 144 27133ft 294kts
30-Jan-18 21:46 34.895834 -119.358682 144 27133ft 294kts
30-Jan-18 21:47 34.842018 -119.310661 144 27126ft 294kts
30-Jan-18 21:48 34.794459 -119.268286 144 27127ft 293kts
30-Jan-18 21:49 34.729532 -119.210524 144 27206ft 291kts
30-Jan-18 21:50 34.664507 -119.152802 144 27209ft 292kts
30-Jan-18 21:51 34.599018 -119.094784 144 27209ft 292kts
30-Jan-18 21:52 34.535459 -119.038588 144 27210ft 293kts
30-Jan-18 21:53 34.468230 -118.979291 144 26227ft 315kts
30-Jan-18 21:54 34.398263 -118.917623 145 24672ft 319kts
30-Jan-18 21:55 34.322451 -118.868604 165 23104ft 314kts
30-Jan-18 21:56 34.240133 -118.838275 165 21524ft 310kts
30-Jan-18 21:57 34.158891 -118.808481 165 19945ft 306kts
30-Jan-18 21:58 34.079677 -118.779465 165 18384ft 303kts
30-Jan-18 21:59 34.000143 -118.750389 165 16802ft 301kts
30-Jan-18 22:00 33.920531 -118.721336 164 15217ft 301kts
30-Jan-18 22:01 33.844952 -118.693821 164 13707ft 301kts
30-Jan-18 22:02 33.770370 -118.666647 164 13979ft 260kts
30-Jan-18 22:03 33.700733 -118.641791 165 14003ft 263kts
30-Jan-18 22:04 33.630194 -118.616958 165 14003ft 265kts
30-Jan-18 22:05 33.570291 -118.583223 143 14042ft 266kts
30-Jan-18 22:06 33.561177 -118.495188 81 12331ft 291kts
30-Jan-18 22:07 33.570622 -118.398314 81 10545ft 294kts
30-Jan-18 22:08 33.579555 -118.307857 82 8863ft 291kts
30-Jan-18 22:09 33.588377 -118.221908 82 7235ft 286kts
30-Jan-18 22:10 33.598040 -118.136576 82 5602ft 281kts
30-Jan-18 22:11 33.608283 -118.048783 82 3885ft 271kts
30-Jan-18 22:12 33.618753 -117.980131 64 2473ft 233kts
30-Jan-18 22:13 33.656227 -117.929017 40 2677ft 214kts
30-Jan-18 22:14 33.702771 -117.890859 35 2632ft 189kts
30-Jan-18 22:15 33.716789 -117.857814 135 1902ft 102kts
30-Jan-18 22:16 33.689602 -117.860086 207 281ft 105kts
30-Jan-18 22:17 33.670492 -117.872136 209 60ft 29kts
30-Jan-18 22:18 33.667398 -117.872900 160 60ft 1kts
30-Jan-18 22:19 33.666360 -117.873459 151 60ft 5kts
30-Jan-18 22:20 33.666038 -117.873330 215 60ft 0kts
30-Jan-18 22:21 33.666038 -117.873330 215 60ft 0kts
30-Jan-18 22:22 33.666038 -117.873330 215 60ft 0kts
30-Jan-18 22:23 33.666038 -117.873330 215 60ft 0kts
30-Jan-18 22:24 33.666038 -117.873330 215 60ft 0kts
30-Jan-18 22:25 33.666038 -117.873330 215 60ft 0kts
30-Jan-18 22:26 33.666038 -117.873330 215 60ft 0kts
30-Jan-18 22:27 33.666038 -117.873330 215 60ft 0kts
30-Jan-18 22:28 33.666038 -117.873330 215 60ft 0kts
30-Jan-18 22:29 33.666038 -117.873330 215 60ft 0kts
30-Jan-18 22:30 33.666038 -117.873330 215 60ft 0kts
30-Jan-18 22:31 33.666038 -117.873330 215 60ft 0kts

Navigation Log

Ident Type
Flight plan parsing failed, navigation log unavailable